Terminal Aerodrome Forecast
Issued by NWS

Home | Current Version | Previous Version | Text Only | Print | Product List | Glossary On
Versions: 1 2 3 4 5 6 7 8 9 10 11 12 13 14 15 16 17 18 19 20 21 22
647
FTUS41 KALY 092348
TAFPSF
TAF
KPSF 092348Z 1000/1024 VRB03KT 6SM -SHSN OVC020
      TEMPO 1000/1004 2SM -SHSN BKN008 OVC020
     FM100600 19004KT P6SM VCSH OVC015 PROB30 1009/1012 2SM -SHSN
      OVC008
     FM101800 27006KT P6SM VCSH BKN030=

USA.gov is the U.S. government's official web portal to all federal, state and local government web resources and services.